Time;durP1;ratioP1;P1;durP2;ratioP2;P2;SDS_P1;SDS_P2;PMS_P1;PMS_P2;Temp;Humidity;BMP_temperature;BMP_pressure;BME280_temperature;BME280_humidity;BME280_pressure;Samples;Min_cycle;Max_cycle;Signal;HPM_P1;HPM_P2
2022/01/04 00:00:41;;;;;;;5.60;2.10;;;7.90;99.90;;;;;;4998066;28;20416;-57
2022/01/04 00:03:07;;;;;;;2.17;1.97;;;7.90;99.90;;;;;;5001273;28;20600;-57
2022/01/04 00:05:33;;;;;;;2.50;1.87;;;7.90;99.90;;;;;;5001775;28;20811;-59
2022/01/04 00:07:59;;;;;;;4.23;2.37;;;7.90;99.90;;;;;;4996695;28;20216;-58
2022/01/04 00:10:27;;;;;;;3.80;1.93;;;7.90;99.90;;;;;;5000206;28;20176;-57
2022/01/04 00:13:38;;;;;;;7.47;2.60;;;7.90;99.90;;;;;;4998446;28;20425;-58
2022/01/04 00:15:42;;;;;;;2.77;2.17;;;7.80;99.90;;;;;;4991495;28;20554;-58
2022/01/04 00:18:08;;;;;;;4.90;2.07;;;7.80;99.90;;;;;;4997222;28;20501;-57
2022/01/04 00:20:33;;;;;;;6.90;2.50;;;7.80;99.90;;;;;;5000371;28;20463;-55
2022/01/04 00:22:59;;;;;;;5.80;2.30;;;7.80;99.90;;;;;;5002748;28;20172;-58
2022/01/04 00:25:25;;;;;;;5.50;2.40;;;7.80;99.90;;;;;;4998747;28;20568;-58
2022/01/04 00:27:50;;;;;;;6.50;2.40;;;7.80;99.90;;;;;;4998319;28;20216;-61
2022/01/04 00:30:16;;;;;;;2.77;2.07;;;7.80;99.90;;;;;;4997964;28;20184;-58
2022/01/04 00:32:42;;;;;;;5.00;2.70;;;7.80;99.90;;;;;;4998764;28;20204;-56
2022/01/04 00:35:08;;;;;;;4.33;2.17;;;7.80;99.90;;;;;;5001838;28;20263;-56
2022/01/04 00:37:34;;;;;;;3.03;2.10;;;7.80;99.90;;;;;;4996504;28;20455;-60
2022/01/04 00:40:00;;;;;;;8.03;2.40;;;7.70;99.90;;;;;;4999978;28;20841;-57
2022/01/04 00:42:26;;;;;;;4.43;2.03;;;7.80;99.90;;;;;;5003116;28;20176;-59
2022/01/04 00:44:51;;;;;;;4.70;2.53;;;7.70;99.90;;;;;;4997560;28;20188;-58
2022/01/04 00:47:19;;;;;;;4.30;2.70;;;7.70;99.90;;;;;;5000159;28;20458;-59
2022/01/04 00:49:45;;;;;;;5.50;2.50;;;7.70;99.90;;;;;;5000889;28;20352;-58
2022/01/04 00:52:16;;;;;;;2.30;2.10;;;7.70;99.90;;;;;;5014682;23;20499;-60
2022/01/04 00:54:42;;;;;;;5.77;2.40;;;7.70;99.90;;;;;;4982926;28;20174;-61
2022/01/04 00:57:08;;;;;;;8.50;2.53;;;7.70;99.90;;;;;;4986867;28;20492;-59
2022/01/04 00:59:33;;;;;;;5.07;2.53;;;7.70;99.90;;;;;;4980263;28;20501;-62
2022/01/04 01:01:59;;;;;;;4.83;2.40;;;7.60;99.90;;;;;;4988884;28;20170;-60
2022/01/04 01:04:25;;;;;;;2.97;2.07;;;7.60;99.90;;;;;;4989804;28;20169;-61
2022/01/04 01:06:50;;;;;;;5.70;2.23;;;7.60;99.90;;;;;;4984899;28;20176;-59
2022/01/04 01:09:16;;;;;;;6.53;3.13;;;7.60;99.90;;;;;;4988764;28;20181;-62
2022/01/04 01:11:41;;;;;;;2.77;2.10;;;7.50;99.90;;;;;;4989148;28;20707;-62
2022/01/04 01:14:07;;;;;;;2.70;2.30;;;7.50;99.90;;;;;;4988022;28;20201;-62
2022/01/04 01:16:33;;;;;;;5.00;2.73;;;7.50;99.90;;;;;;4975461;28;20181;-61
2022/01/04 01:18:59;;;;;;;6.00;3.17;;;7.50;99.90;;;;;;4969255;28;20967;-61
2022/01/04 01:21:25;;;;;;;9.30;2.00;;;7.50;99.90;;;;;;4979015;28;20570;-62
2022/01/04 01:23:50;;;;;;;2.50;2.30;;;7.50;99.90;;;;;;4970745;28;20246;-61
2022/01/04 01:26:16;;;;;;;4.27;1.80;;;7.60;99.90;;;;;;4988827;28;20458;-61
2022/01/04 01:28:42;;;;;;;3.43;1.90;;;7.60;99.90;;;;;;4990099;28;20640;-61
2022/01/04 01:31:08;;;;;;;4.40;1.83;;;7.70;99.90;;;;;;4988811;28;20256;-61
2022/01/04 01:33:34;;;;;;;2.77;2.00;;;7.70;99.90;;;;;;4980349;28;20213;-61
2022/01/04 01:36:00;;;;;;;1.87;1.67;;;7.80;99.90;;;;;;4976544;28;20420;-62
2022/01/04 01:38:26;;;;;;;3.90;1.57;;;7.80;99.90;;;;;;4972735;28;20203;-61
2022/01/04 01:40:52;;;;;;;2.03;1.60;;;7.90;99.90;;;;;;4993179;28;20385;-62
2022/01/04 01:43:18;;;;;;;1.90;1.80;;;7.90;99.90;;;;;;4988246;28;20204;-59
2022/01/04 01:45:45;;;;;;;4.43;2.60;;;7.90;99.90;;;;;;4987756;28;20416;-62
2022/01/04 01:48:11;;;;;;;3.07;1.50;;;7.90;99.90;;;;;;4991574;28;20816;-62
2022/01/04 01:50:37;;;;;;;8.07;2.23;;;8.00;99.90;;;;;;4973766;28;20802;-62
2022/01/04 01:53:03;;;;;;;2.90;1.60;;;8.00;99.90;;;;;;4987025;28;20460;-61
2022/01/04 01:55:29;;;;;;;1.97;1.63;;;8.00;99.90;;;;;;4993659;28;20499;-60
2022/01/04 01:57:55;;;;;;;4.30;1.60;;;8.10;99.90;;;;;;4975134;28;20543;-62
2022/01/04 02:00:25;;;;;;;2.70;1.50;;;8.10;99.90;;;;;;4987034;28;20170;-60
2022/01/04 02:02:51;;;;;;;1.60;1.40;;;8.10;99.90;;;;;;4987431;28;21032;-62
2022/01/04 02:05:17;;;;;;;1.50;1.40;;;8.10;99.90;;;;;;4993223;28;20415;-62
2022/01/04 02:07:43;;;;;;;2.30;1.60;;;8.10;99.90;;;;;;4985822;28;20428;-62
2022/01/04 02:10:10;;;;;;;2.50;1.70;;;8.10;99.90;;;;;;4988237;28;20181;-61
2022/01/04 02:12:39;;;;;;;2.70;1.83;;;8.10;99.90;;;;;;4993222;28;20424;-62
2022/01/04 02:15:07;;;;;;;3.53;1.60;;;8.10;99.90;;;;;;4992747;28;20404;-61
2022/01/04 02:17:33;;;;;;;1.60;1.50;;;8.20;99.90;;;;;;4982153;28;20455;-62
2022/01/04 02:20:00;;;;;;;2.30;1.77;;;8.20;99.90;;;;;;4988938;28;20436;-64
2022/01/04 02:22:27;;;;;;;4.30;1.93;;;8.20;99.90;;;;;;4990208;28;20498;-60
2022/01/04 02:24:54;;;;;;;3.73;1.50;;;8.20;99.90;;;;;;4987584;28;20494;-61
2022/01/04 02:27:20;;;;;;;2.70;1.50;;;8.20;99.90;;;;;;4990838;28;20518;-61
2022/01/04 02:29:47;;;;;;;1.90;1.80;;;8.30;99.90;;;;;;4987993;28;20444;-61
2022/01/04 02:32:13;;;;;;;2.60;1.60;;;8.30;99.90;;;;;;4989184;28;20435;-61
2022/01/04 02:34:40;;;;;;;3.43;1.60;;;8.30;99.90;;;;;;4986426;28;20913;-61
2022/01/04 02:37:08;;;;;;;1.47;1.37;;;8.30;99.90;;;;;;4992225;28;20433;-62
2022/01/04 02:39:36;;;;;;;4.00;1.90;;;8.40;99.90;;;;;;4989798;28;20440;-62
2022/01/04 02:42:03;;;;;;;1.60;1.50;;;8.40;99.90;;;;;;4988344;28;20518;-61
2022/01/04 02:44:29;;;;;;;7.70;1.80;;;8.40;99.90;;;;;;4968374;28;20965;-61
2022/01/04 02:46:54;;;;;;;1.30;1.30;;;8.50;99.90;;;;;;4989331;28;20436;-62
2022/01/04 02:49:20;;;;;;;2.23;1.80;;;8.50;99.90;;;;;;4967930;28;20589;-62
2022/01/04 02:51:46;;;;;;;2.10;1.90;;;8.50;99.90;;;;;;4986437;28;20184;-62
2022/01/04 02:54:11;;;;;;;2.03;1.43;;;8.60;99.90;;;;;;4987054;28;20209;-62
2022/01/04 02:56:37;;;;;;;1.93;1.50;;;8.60;99.90;;;;;;4987029;28;20178;-60
2022/01/04 02:59:04;;;;;;;3.43;1.80;;;8.60;99.90;;;;;;4978193;28;20252;-62
2022/01/04 03:01:32;;;;;;;1.90;1.80;;;8.60;99.90;;;;;;4989175;28;20161;-61
2022/01/04 03:03:59;;;;;;;2.17;1.53;;;8.60;99.90;;;;;;4992475;28;20806;-62
2022/01/04 03:06:24;;;;;;;3.77;1.77;;;8.70;99.90;;;;;;4988343;28;20927;-61
2022/01/04 03:08:50;;;;;;;3.70;1.90;;;8.70;99.90;;;;;;4991224;28;20432;-62
2022/01/04 03:11:16;;;;;;;2.90;1.97;;;8.70;99.90;;;;;;4990789;28;20177;-62
2022/01/04 03:13:42;;;;;;;2.10;1.60;;;8.70;99.90;;;;;;4984191;28;20282;-62
2022/01/04 03:16:07;;;;;;;1.60;1.50;;;8.70;99.90;;;;;;4979070;28;20185;-61
2022/01/04 03:18:33;;;;;;;2.57;1.63;;;8.80;99.90;;;;;;4991336;28;20208;-62
2022/01/04 03:20:59;;;;;;;3.73;1.80;;;8.80;99.90;;;;;;4991533;28;20196;-62
2022/01/04 03:23:25;;;;;;;1.90;1.80;;;8.70;99.90;;;;;;4984627;28;20484;-62
2022/01/04 03:25:50;;;;;;;2.23;1.63;;;8.70;99.90;;;;;;4974031;28;20747;-61
2022/01/04 03:28:19;;;;;;;2.00;1.80;;;8.70;99.90;;;;;;4965779;28;20634;-61
2022/01/04 03:30:46;;;;;;;1.83;1.70;;;8.70;99.90;;;;;;4972852;28;20196;-61
2022/01/04 03:33:11;;;;;;;2.60;1.80;;;8.70;99.90;;;;;;4970659;28;20835;-61
2022/01/04 03:35:37;;;;;;;1.97;1.43;;;8.60;99.90;;;;;;4989993;28;20420;-61
2022/01/04 03:38:03;;;;;;;2.30;1.50;;;8.70;99.90;;;;;;4992114;28;20626;-61
2022/01/04 03:40:28;;;;;;;3.07;2.03;;;8.60;99.90;;;;;;4990985;28;20251;-60
2022/01/04 03:42:54;;;;;;;6.43;1.77;;;8.60;99.90;;;;;;4990602;28;20207;-62
2022/01/04 03:45:20;;;;;;;2.17;1.53;;;8.60;99.90;;;;;;4986874;28;20205;-61
2022/01/04 03:47:46;;;;;;;1.70;1.60;;;8.60;99.90;;;;;;4989291;28;20204;-61
2022/01/04 03:50:12;;;;;;;1.90;1.77;;;8.60;99.90;;;;;;4988499;28;20226;-61
2022/01/04 03:52:38;;;;;;;4.93;1.60;;;8.60;99.90;;;;;;4987241;28;20464;-61
2022/01/04 03:55:06;;;;;;;1.50;1.40;;;8.60;99.90;;;;;;4989193;28;20174;-61
2022/01/04 03:57:32;;;;;;;1.70;1.60;;;8.60;99.90;;;;;;4989464;28;20207;-62
2022/01/04 03:59:58;;;;;;;3.13;1.90;;;8.50;99.90;;;;;;4989033;28;20436;-59
2022/01/04 04:02:24;;;;;;;2.27;1.73;;;8.50;99.90;;;;;;4987666;28;20449;-62
2022/01/04 04:04:49;;;;;;;2.30;1.93;;;8.50;99.90;;;;;;4972713;28;20177;-62
2022/01/04 04:07:15;;;;;;;2.00;1.60;;;8.50;99.90;;;;;;4970628;28;20188;-62
2022/01/04 04:09:41;;;;;;;6.70;2.10;;;8.50;99.90;;;;;;4988260;28;20779;-62
2022/01/04 04:12:07;;;;;;;2.00;1.90;;;8.50;99.90;;;;;;4988957;28;20173;-61
2022/01/04 04:14:33;;;;;;;5.50;2.00;;;8.40;99.90;;;;;;4989909;28;20177;-59
2022/01/04 04:16:58;;;;;;;5.17;3.37;;;8.40;99.90;;;;;;4988820;28;20429;-61
2022/01/04 04:19:24;;;;;;;2.20;2.00;;;8.40;99.90;;;;;;4971513;28;20200;-59
2022/01/04 04:21:49;;;;;;;2.03;1.83;;;8.40;99.90;;;;;;4988087;28;20249;-61
2022/01/04 04:24:15;;;;;;;4.10;2.00;;;8.40;99.90;;;;;;4989074;28;20536;-61
2022/01/04 04:26:41;;;;;;;3.10;2.13;;;8.40;99.90;;;;;;4986536;28;20174;-61
2022/01/04 04:29:07;;;;;;;1.93;1.83;;;8.40;99.90;;;;;;4988015;28;20177;-61
2022/01/04 04:31:33;;;;;;;4.87;1.70;;;8.40;99.90;;;;;;4988079;28;20173;-62
2022/01/04 04:33:58;;;;;;;2.73;1.90;;;8.30;99.90;;;;;;4988908;28;20518;-61
2022/01/04 04:36:26;;;;;;;2.07;1.87;;;8.30;99.90;;;;;;4987778;28;20181;-61
2022/01/04 04:38:52;;;;;;;1.70;1.60;;;8.30;99.90;;;;;;4988789;28;20208;-62
2022/01/04 04:41:17;;;;;;;2.03;1.73;;;8.30;99.90;;;;;;4986490;28;20416;-61
2022/01/04 04:43:43;;;;;;;2.83;2.10;;;8.30;99.90;;;;;;4986451;28;20679;-62
2022/01/04 04:46:09;;;;;;;2.60;2.27;;;8.30;99.90;;;;;;4989271;28;20252;-62
2022/01/04 04:48:34;;;;;;;3.07;2.20;;;8.30;99.90;;;;;;4986117;28;20269;-62
2022/01/04 04:51:00;;;;;;;3.00;2.40;;;8.40;99.90;;;;;;4986879;28;20201;-62
2022/01/04 04:53:26;;;;;;;3.23;2.33;;;8.40;99.90;;;;;;4987124;28;20208;-61
2022/01/04 04:55:51;;;;;;;3.73;1.83;;;8.40;99.90;;;;;;4988463;28;20184;-62
2022/01/04 04:58:17;;;;;;;4.10;2.00;;;8.40;99.90;;;;;;4985180;28;20201;-62
2022/01/04 05:00:43;;;;;;;2.77;1.90;;;8.40;99.90;;;;;;4983820;28;20188;-61
2022/01/04 05:03:08;;;;;;;1.87;1.47;;;8.40;99.90;;;;;;4982685;28;20229;-61
2022/01/04 05:05:34;;;;;;;2.83;2.10;;;8.40;99.90;;;;;;4983923;28;20170;-58
2022/01/04 05:07:59;;;;;;;3.87;1.80;;;8.40;99.90;;;;;;4983063;28;20216;-62
2022/01/04 05:10:25;;;;;;;1.80;1.70;;;8.50;99.90;;;;;;4982490;28;20200;-62
2022/01/04 05:12:51;;;;;;;2.13;1.63;;;8.50;99.90;;;;;;4969166;28;20239;-61
2022/01/04 05:15:16;;;;;;;3.03;2.00;;;8.50;99.90;;;;;;4982460;28;20184;-60
2022/01/04 05:17:42;;;;;;;2.73;1.53;;;8.50;99.90;;;;;;4982785;28;20200;-61
2022/01/04 05:20:08;;;;;;;1.70;1.60;;;8.50;99.90;;;;;;4983728;28;20205;-62
2022/01/04 05:22:34;;;;;;;1.33;1.23;;;8.50;99.90;;;;;;4981522;28;20231;-62
2022/01/04 05:25:00;;;;;;;3.30;1.70;;;8.60;99.90;;;;;;4984511;28;20761;-61
2022/01/04 05:27:25;;;;;;;4.60;1.80;;;8.60;99.90;;;;;;4982416;28;20170;-61
2022/01/04 05:29:51;;;;;;;2.07;1.70;;;8.60;99.90;;;;;;4980241;28;20203;-62
2022/01/04 05:32:16;;;;;;;3.73;1.77;;;8.70;99.90;;;;;;4966030;28;20264;-61
2022/01/04 05:34:42;;;;;;;2.00;1.70;;;8.70;99.90;;;;;;4963976;28;20533;-62
2022/01/04 05:37:09;;;;;;;2.10;1.90;;;8.70;99.90;;;;;;4982903;28;20669;-62
2022/01/04 05:39:34;;;;;;;2.63;1.40;;;8.70;99.90;;;;;;4983144;28;20565;-62
2022/01/04 05:42:00;;;;;;;1.50;1.40;;;8.70;99.90;;;;;;4984105;28;20424;-61
2022/01/04 05:44:26;;;;;;;1.87;1.77;;;8.70;99.90;;;;;;4984761;28;20176;-62
2022/01/04 05:46:51;;;;;;;2.00;1.90;;;8.70;99.90;;;;;;4965950;28;20547;-60
2022/01/04 05:49:17;;;;;;;2.80;1.70;;;8.70;99.90;;;;;;4980966;28;20259;-62
2022/01/04 05:51:43;;;;;;;2.90;1.60;;;8.70;99.90;;;;;;4964371;28;20183;-62
2022/01/04 05:54:09;;;;;;;2.40;1.53;;;8.70;99.90;;;;;;4981386;28;20209;-62
2022/01/04 05:56:35;;;;;;;2.60;1.60;;;8.70;99.90;;;;;;4985362;28;20793;-62
2022/01/04 05:59:00;;;;;;;1.87;1.77;;;8.60;99.90;;;;;;4965260;28;20205;-62
2022/01/04 06:01:26;;;;;;;2.17;2.00;;;8.60;99.90;;;;;;4973526;28;20177;-62
2022/01/04 06:03:52;;;;;;;3.00;1.57;;;8.70;99.90;;;;;;4976416;28;20204;-61
2022/01/04 06:06:18;;;;;;;7.10;1.70;;;8.60;99.90;;;;;;4982122;28;20659;-62
2022/01/04 06:08:44;;;;;;;1.80;1.70;;;8.70;99.90;;;;;;4984881;28;20564;-62
2022/01/04 06:11:29;;;;;;;3.70;1.80;;;8.70;99.90;;;;;;4983345;28;20428;-62
2022/01/04 06:16:39;;;;;;;3.77;1.90;;;8.70;99.90;;;;;;4984878;28;20477;-62
2022/01/04 06:19:04;;;;;;;1.83;1.70;;;8.70;99.90;;;;;;4986041;28;20468;-62
2022/01/04 06:21:30;;;;;;;2.43;1.90;;;8.70;99.90;;;;;;4984977;28;20185;-62
2022/01/04 06:23:57;;;;;;;2.27;1.50;;;8.70;99.90;;;;;;4988068;28;20205;-61
2022/01/04 06:26:23;;;;;;;1.97;1.87;;;8.70;99.90;;;;;;4988002;28;20177;-61
2022/01/04 06:28:49;;;;;;;2.17;1.63;;;8.70;99.90;;;;;;4988451;28;20956;-62
2022/01/04 06:31:15;;;;;;;1.83;1.70;;;8.70;99.90;;;;;;4986958;28;20432;-62
2022/01/04 06:33:41;;;;;;;1.60;1.50;;;8.70;99.90;;;;;;4989646;28;20458;-61
2022/01/04 06:36:06;;;;;;;6.33;1.80;;;8.70;99.90;;;;;;4987717;28;20181;-60
2022/01/04 06:38:32;;;;;;;2.23;1.47;;;8.70;99.90;;;;;;4988267;28;20209;-61
2022/01/04 06:40:58;;;;;;;2.00;1.70;;;8.70;99.90;;;;;;4988173;28;20371;-61
2022/01/04 06:43:23;;;;;;;2.10;1.73;;;8.70;99.90;;;;;;4969438;28;20229;-62
2022/01/04 06:45:49;;;;;;;2.57;1.90;;;8.80;99.90;;;;;;4988620;28;20178;-62
2022/01/04 06:48:14;;;;;;;1.57;1.47;;;8.70;99.90;;;;;;4991988;28;20177;-62
2022/01/04 06:50:40;;;;;;;6.43;1.57;;;8.70;99.90;;;;;;4989661;28;20550;-62
2022/01/04 06:53:06;;;;;;;1.53;1.43;;;8.80;99.90;;;;;;4985424;28;20385;-62
2022/01/04 06:55:31;;;;;;;1.90;1.77;;;8.80;99.90;;;;;;4991269;28;20173;-61
2022/01/04 06:57:57;;;;;;;1.40;1.30;;;8.80;99.90;;;;;;4985401;28;20216;-61
2022/01/04 07:00:23;;;;;;;1.47;1.37;;;8.80;99.90;;;;;;4986128;28;20181;-62
2022/01/04 07:02:48;;;;;;;1.40;1.30;;;8.80;99.90;;;;;;4984283;28;20197;-62
2022/01/04 07:05:14;;;;;;;2.10;1.90;;;8.80;99.90;;;;;;4983211;28;20758;-62
2022/01/04 07:07:40;;;;;;;4.10;1.50;;;8.80;99.90;;;;;;4990164;28;20188;-62
2022/01/04 07:10:06;;;;;;;1.80;1.63;;;8.80;99.90;;;;;;4970333;28;20182;-62
2022/01/04 07:12:31;;;;;;;1.50;1.40;;;8.80;99.90;;;;;;4989190;28;20249;-62
2022/01/04 07:14:57;;;;;;;1.60;1.50;;;8.80;99.90;;;;;;4983586;28;20909;-62
2022/01/04 07:17:22;;;;;;;1.70;1.40;;;8.80;99.90;;;;;;4970940;28;20558;-62
2022/01/04 07:19:49;;;;;;;3.60;2.47;;;8.80;99.90;;;;;;4985036;28;20288;-62
2022/01/04 07:22:14;;;;;;;4.73;2.60;;;8.80;99.90;;;;;;4990172;28;20239;-61
2022/01/04 07:24:40;;;;;;;1.80;1.70;;;8.80;99.90;;;;;;4986869;28;20460;-62
2022/01/04 07:27:06;;;;;;;2.00;1.90;;;8.80;99.90;;;;;;4988982;28;20256;-59
2022/01/04 07:29:31;;;;;;;3.47;1.47;;;8.80;99.90;;;;;;4981470;28;20189;-61
2022/01/04 07:31:57;;;;;;;3.30;1.60;;;8.80;99.90;;;;;;4986585;28;20182;-57
2022/01/04 07:34:23;;;;;;;1.77;1.67;;;8.80;99.90;;;;;;4984170;28;20201;-57
2022/01/04 07:36:48;;;;;;;1.90;1.53;;;8.80;99.90;;;;;;4982377;28;20177;-57
2022/01/04 07:39:14;;;;;;;2.13;1.93;;;8.90;99.90;;;;;;4987983;28;20667;-58
2022/01/04 07:41:39;;;;;;;2.90;1.80;;;9.00;99.90;;;;;;4975702;28;20648;-61
2022/01/04 07:44:05;;;;;;;1.53;1.43;;;9.00;99.90;;;;;;4988349;28;20276;-61
2022/01/04 07:46:31;;;;;;;1.83;1.70;;;9.00;99.90;;;;;;4985819;28;20683;-61
2022/01/04 07:48:56;;;;;;;2.70;1.70;;;9.00;99.90;;;;;;4990521;28;20184;-61
2022/01/04 07:51:22;;;;;;;4.50;2.70;;;9.00;99.90;;;;;;4970329;28;20173;-61
2022/01/04 07:53:48;;;;;;;2.40;1.40;;;9.00;99.90;;;;;;4982810;28;20220;-61
2022/01/04 07:56:14;;;;;;;3.40;2.03;;;9.00;99.90;;;;;;4987015;28;20184;-60
2022/01/04 07:58:39;;;;;;;2.13;1.93;;;9.00;99.90;;;;;;4987613;28;20593;-60
2022/01/04 08:01:05;;;;;;;3.63;2.00;;;9.00;99.90;;;;;;4969032;28;20420;-61
2022/01/04 08:03:31;;;;;;;2.97;2.00;;;9.00;99.90;;;;;;4988012;28;22046;-61
2022/01/04 08:05:56;;;;;;;1.80;1.47;;;9.00;99.90;;;;;;4979728;28;20181;-61
2022/01/04 08:08:22;;;;;;;2.40;1.73;;;9.00;99.90;;;;;;4986451;28;20252;-61
2022/01/04 08:10:50;;;;;;;4.07;1.90;;;9.00;99.90;;;;;;4967341;28;20180;-61
2022/01/04 08:13:15;;;;;;;3.23;1.70;;;9.00;99.90;;;;;;4975186;28;20208;-61
2022/01/04 08:15:41;;;;;;;2.60;1.67;;;9.00;99.90;;;;;;4986347;28;20420;-62
2022/01/04 08:18:07;;;;;;;2.20;2.00;;;9.00;99.90;;;;;;4988145;28;20208;-61
2022/01/04 08:20:32;;;;;;;1.97;1.80;;;9.00;99.90;;;;;;4982719;28;20185;-60
2022/01/04 08:22:59;;;;;;;4.40;2.13;;;9.10;99.90;;;;;;4980630;28;20213;-61
2022/01/04 08:25:25;;;;;;;2.80;1.70;;;9.10;99.90;;;;;;4990306;28;20539;-61
2022/01/04 08:27:52;;;;;;;1.67;1.57;;;9.10;99.90;;;;;;4991309;28;20412;-61
2022/01/04 08:30:19;;;;;;;1.93;1.47;;;9.10;99.90;;;;;;4979474;28;20437;-61
2022/01/04 08:32:44;;;;;;;1.90;1.70;;;9.10;99.90;;;;;;4983942;28;20452;-61
2022/01/04 08:35:10;;;;;;;1.90;1.80;;;9.10;99.90;;;;;;4986241;28;20499;-60
2022/01/04 08:37:37;;;;;;;2.13;1.90;;;9.10;99.90;;;;;;5001219;28;20196;-62
2022/01/04 08:40:04;;;;;;;5.93;2.07;;;9.20;99.90;;;;;;4991378;28;20420;-61
2022/01/04 08:42:30;;;;;;;6.47;2.33;;;9.20;99.90;;;;;;5003444;28;20420;-61
2022/01/04 08:44:56;;;;;;;2.63;1.70;;;9.20;99.90;;;;;;5002674;28;20499;-67
2022/01/04 08:47:23;;;;;;;6.93;2.10;;;9.30;99.90;;;;;;4992576;28;20721;-60
2022/01/04 08:49:50;;;;;;;1.77;1.67;;;9.30;99.90;;;;;;4989908;28;20456;-62
2022/01/04 08:52:15;;;;;;;3.83;2.00;;;9.30;99.90;;;;;;4968031;28;20887;-60
2022/01/04 08:54:41;;;;;;;6.70;1.80;;;9.30;99.90;;;;;;4974739;28;20508;-62
2022/01/04 08:57:07;;;;;;;3.30;2.00;;;9.30;99.90;;;;;;4989765;28;20165;-62
2022/01/04 08:59:33;;;;;;;1.73;1.63;;;9.40;99.90;;;;;;4990735;28;20592;-62
2022/01/04 09:01:59;;;;;;;2.53;2.10;;;9.40;99.90;;;;;;4979307;28;21078;-60
2022/01/04 09:04:25;;;;;;;3.40;1.93;;;9.40;99.90;;;;;;4990006;28;20427;-62
2022/01/04 09:06:51;;;;;;;2.00;1.87;;;9.30;99.90;;;;;;4983746;28;20437;-61
2022/01/04 09:09:17;;;;;;;2.17;1.97;;;9.40;99.90;;;;;;4980784;28;20437;-61
2022/01/04 09:11:44;;;;;;;2.33;2.13;;;9.40;99.90;;;;;;4972963;28;20178;-61
2022/01/04 09:19:26;;;;;;;6.60;2.00;;;9.50;99.90;;;;;;4979055;28;20211;-62
2022/01/04 09:21:52;;;;;;;1.80;1.70;;;9.50;99.90;;;;;;4964666;28;20907;-61
2022/01/04 09:24:19;;;;;;;3.63;1.80;;;9.50;99.90;;;;;;4980906;28;20836;-61
2022/01/04 09:26:45;;;;;;;1.83;1.60;;;9.50;99.90;;;;;;4985207;28;20428;-62
2022/01/04 09:29:11;;;;;;;2.23;2.03;;;9.60;99.90;;;;;;4983991;28;20437;-62
2022/01/04 09:31:37;;;;;;;2.67;2.00;;;9.60;99.90;;;;;;4977964;28;20440;-62
2022/01/04 09:34:03;;;;;;;2.00;1.90;;;9.60;99.90;;;;;;4978854;28;20460;-62
2022/01/04 09:36:34;;;;;;;3.10;2.00;;;9.70;99.90;;;;;;4981821;28;20902;-62
2022/01/04 09:39:01;;;;;;;2.40;2.20;;;9.70;99.90;;;;;;4978731;28;20467;-61
2022/01/04 09:41:27;;;;;;;2.10;1.90;;;9.80;99.90;;;;;;4980749;28;20440;-61
2022/01/04 09:43:53;;;;;;;1.77;1.67;;;9.80;99.90;;;;;;4980736;28;20532;-62
2022/01/04 09:46:19;;;;;;;1.87;1.70;;;9.80;99.90;;;;;;4976761;28;20560;-62
2022/01/04 09:48:45;;;;;;;4.60;2.97;;;9.80;99.90;;;;;;4978047;28;20215;-62
2022/01/04 09:51:12;;;;;;;2.00;1.80;;;9.80;99.90;;;;;;4985456;28;20503;-61
2022/01/04 09:53:38;;;;;;;3.03;1.60;;;9.90;99.90;;;;;;4978331;28;20579;-60
2022/01/04 09:56:04;;;;;;;8.37;3.50;;;9.90;99.90;;;;;;4982684;28;20471;-61
2022/01/04 09:58:30;;;;;;;3.03;1.60;;;9.90;99.90;;;;;;4979952;28;20204;-60
2022/01/04 10:00:56;;;;;;;1.47;1.37;;;9.90;99.90;;;;;;4984955;28;20173;-61
2022/01/04 10:03:28;;;;;;;2.97;2.17;;;9.90;99.90;;;;;;4968847;28;20444;-61
2022/01/04 10:06:15;;;;;;;2.23;1.97;;;9.90;99.90;;;;;;4987352;28;21002;-61
2022/01/04 10:08:55;;;;;;;3.47;2.60;;;9.90;99.90;;;;;;4986251;28;20429;-61
2022/01/04 10:11:42;;;;;;;3.87;2.47;;;10.00;99.90;;;;;;4987517;28;20952;-59
2022/01/04 10:14:30;;;;;;;3.23;2.00;;;10.00;99.90;;;;;;4982062;28;20456;-60
2022/01/04 10:17:02;;;;;;;5.70;1.80;;;10.00;99.90;;;;;;4986812;28;20436;-61
2022/01/04 10:19:30;;;;;;;2.20;2.00;;;10.10;99.90;;;;;;4984627;28;20456;-62
2022/01/04 10:22:26;;;;;;;2.50;1.90;;;10.10;99.90;;;;;;4984941;28;20503;-61
2022/01/04 10:25:02;;;;;;;2.07;1.97;;;10.10;99.90;;;;;;4984591;28;20523;-61
2022/01/04 10:27:33;;;;;;;3.37;2.30;;;10.20;99.90;;;;;;4983407;28;20785;-61
2022/01/04 10:30:11;;;;;;;7.63;2.20;;;10.20;99.90;;;;;;4980970;28;20425;-61
2022/01/04 10:32:56;;;;;;;2.50;1.97;;;10.20;99.90;;;;;;4980653;28;20448;-60
2022/01/04 10:35:32;;;;;;;3.80;2.20;;;10.30;99.90;;;;;;4982762;28;20443;-61
2022/01/04 10:38:20;;;;;;;4.50;2.57;;;10.40;99.90;;;;;;4966796;28;20463;-61
2022/01/04 10:41:07;;;;;;;3.90;2.40;;;10.40;99.90;;;;;;4981823;28;20440;-61
2022/01/04 10:43:38;;;;;;;6.00;2.40;;;10.50;99.90;;;;;;4983853;28;20504;-61
2022/01/04 10:46:05;;;;;;;4.70;2.80;;;10.50;99.90;;;;;;4975843;28;20533;-62
2022/01/04 10:48:36;;;;;;;4.60;2.67;;;10.60;99.90;;;;;;4969039;28;20466;-61
2022/01/04 10:51:14;;;;;;;3.40;2.10;;;10.70;99.90;;;;;;4986598;28;20462;-60
2022/01/04 10:53:50;;;;;;;5.13;2.43;;;10.70;99.90;;;;;;4979111;28;21125;-61
2022/01/04 10:56:22;;;;;;;2.20;2.00;;;10.80;99.90;;;;;;4968107;28;20924;-61
2022/01/04 10:58:50;;;;;;;2.10;1.90;;;10.80;99.90;;;;;;4987351;28;20455;-61
2022/01/04 11:01:19;;;;;;;1.83;1.60;;;10.90;99.90;;;;;;4976522;28;20435;-60
2022/01/04 11:03:54;;;;;;;2.60;2.20;;;11.00;99.90;;;;;;4965096;28;20544;-60
2022/01/04 11:06:33;;;;;;;3.63;2.60;;;11.00;99.90;;;;;;4984481;28;20428;-61
2022/01/04 11:08:59;;;;;;;3.27;2.40;;;11.10;99.90;;;;;;4983403;28;20448;-60
2022/01/04 11:11:26;;;;;;;8.77;2.83;;;11.30;99.90;;;;;;4981944;28;20420;-60
2022/01/04 11:13:53;;;;;;;3.70;2.33;;;11.40;99.90;;;;;;4980367;28;20205;-59
2022/01/04 11:16:22;;;;;;;3.37;2.03;;;11.50;99.90;;;;;;4982552;28;20471;-60
2022/01/04 11:18:50;;;;;;;4.27;2.63;;;11.70;99.90;;;;;;4967069;28;20467;-61
2022/01/04 11:21:20;;;;;;;4.23;2.50;;;11.80;99.90;;;;;;4987070;28;20438;-61
2022/01/04 11:23:47;;;;;;;2.70;2.13;;;11.90;99.90;;;;;;4980466;28;20457;-60
2022/01/04 11:26:13;;;;;;;2.83;2.10;;;12.00;99.80;;;;;;4983737;28;20435;-61
2022/01/04 11:28:45;;;;;;;4.77;2.40;;;12.00;99.80;;;;;;4979190;28;20434;-61
2022/01/04 11:31:32;;;;;;;2.60;1.60;;;12.10;99.20;;;;;;4965265;28;20436;-60
2022/01/04 11:34:09;;;;;;;3.10;2.33;;;12.00;99.00;;;;;;4979030;28;20464;-60
2022/01/04 11:36:36;;;;;;;3.70;1.97;;;12.00;98.50;;;;;;4982910;28;20427;-61
2022/01/04 11:39:22;;;;;;;3.07;1.87;;;12.00;99.10;;;;;;4977495;28;20464;-60
2022/01/04 11:41:48;;;;;;;2.03;1.80;;;12.00;99.60;;;;;;4981972;28;20482;-61
2022/01/04 11:44:23;;;;;;;3.90;2.40;;;12.00;99.40;;;;;;4965865;28;20456;-61
2022/01/04 11:47:00;;;;;;;2.60;2.10;;;11.90;99.90;;;;;;4974848;28;20176;-61
2022/01/04 11:49:26;;;;;;;2.80;2.40;;;11.90;99.90;;;;;;4984263;28;20428;-60
2022/01/04 11:51:52;;;;;;;4.00;2.60;;;11.90;99.90;;;;;;4982453;28;21130;-61
2022/01/04 11:54:26;;;;;;;3.00;2.70;;;11.80;99.90;;;;;;4977885;28;20214;-60
2022/01/04 11:56:54;;;;;;;3.97;2.70;;;11.80;99.90;;;;;;4968374;28;20196;-61
2022/01/04 11:59:30;;;;;;;3.13;2.37;;;11.70;99.90;;;;;;4983719;28;21038;-61
2022/01/04 12:01:56;;;;;;;5.90;2.70;;;11.60;99.90;;;;;;4976404;28;20451;-61
2022/01/04 12:04:50;;;;;;;2.43;2.13;;;11.60;99.90;;;;;;4982897;28;20957;-61
2022/01/04 12:07:41;;;;;;;7.83;2.63;;;11.50;99.90;;;;;;4983882;28;20192;-59
2022/01/04 12:10:19;;;;;;;4.20;2.17;;;11.40;99.90;;;;;;4983842;28;20573;-60
2022/01/04 12:12:57;;;;;;;5.47;2.20;;;11.40;99.90;;;;;;4976767;28;20463;-61
2022/01/04 12:15:35;;;;;;;3.63;2.60;;;11.40;99.90;;;;;;4974335;28;20519;-60
2022/01/04 12:18:08;;;;;;;2.67;2.20;;;11.40;99.90;;;;;;4978583;28;20460;-60
2022/01/04 12:20:42;;;;;;;2.90;2.37;;;11.40;99.90;;;;;;4978746;28;20591;-61
2022/01/04 12:23:26;;;;;;;5.83;2.03;;;11.30;99.90;;;;;;4983282;28;20455;-58
2022/01/04 12:26:12;;;;;;;3.53;2.40;;;11.30;99.90;;;;;;4981023;28;20824;-61
2022/01/04 12:28:43;;;;;;;2.43;2.13;;;11.30;99.90;;;;;;4964135;28;20440;-61
2022/01/04 12:31:18;;;;;;;2.50;2.20;;;11.20;99.90;;;;;;4982137;28;20435;-60
2022/01/04 12:33:52;;;;;;;3.63;2.87;;;11.20;99.90;;;;;;4973597;28;20522;-60
2022/01/04 12:36:39;;;;;;;3.37;2.70;;;11.10;99.90;;;;;;4978112;28;20548;-61
2022/01/04 12:39:10;;;;;;;2.47;2.27;;;11.10;99.90;;;;;;4977685;28;20460;-61
2022/01/04 12:41:37;;;;;;;2.97;2.77;;;11.10;99.90;;;;;;4979468;28;20429;-61
2022/01/04 12:44:05;;;;;;;4.67;2.70;;;11.10;99.90;;;;;;4960413;28;20659;-59
2022/01/04 12:46:32;;;;;;;2.60;2.40;;;11.00;99.90;;;;;;4975528;28;20445;-60
2022/01/04 12:49:01;;;;;;;6.30;2.47;;;11.00;99.90;;;;;;4977273;28;20446;-60
2022/01/04 12:51:29;;;;;;;3.77;2.77;;;11.00;99.90;;;;;;4984331;28;20506;-61
2022/01/04 12:53:58;;;;;;;6.20;2.33;;;10.90;99.90;;;;;;5003503;23;20567;-57
2022/01/04 12:56:24;;;;;;;5.60;2.20;;;10.90;99.90;;;;;;4970270;28;20484;-60
2022/01/04 12:58:50;;;;;;;6.70;2.40;;;10.80;99.90;;;;;;4961894;28;21004;-59
2022/01/04 13:01:46;;;;;;;8.23;3.40;;;10.80;99.90;;;;;;4961905;28;20664;-57
2022/01/04 13:04:20;;;;;;;2.50;2.20;;;10.80;99.90;;;;;;4961565;28;20541;-58
2022/01/04 13:06:46;;;;;;;4.73;2.40;;;10.80;99.90;;;;;;4958262;28;20521;-57